Latest Coastal Weather Observations for Norah Head

IDN60701

Issued at 6:21 pm EDT Wednesday 18 October 2017 (issued every 10 minutes, with the page automatically refreshed every 10 minutes)

About coastal observations | Map of coastal stations | Coastal observations for NSW | Marine services | Other Formats
Station Details ID: 061366 Name: NORAH HEAD AWS Lat: -33.28 Lon: 151.58 Height: 18.8 m
Data from the previous 72 hours. | See also: Recent months at Norah Head
Date/Time
EDT
Temp
°C
Wind Pressure Rain since
9am
mm
Weather Cloud Vis
km
Sea
Height
m
Swell
Dir  Spd
kts
Gust
kts
hPa Trend Height
m
Period
s
Dir
18/06:00pm 19.9 NE 23 30 1025.0 - 0.0 - - - - - - -
18/05:30pm 20.5 NE 24 29 1025.0 - 0.0 - - - - - - -
18/05:00pm 21.0 NE 23 28 1024.9 - 0.0 - - - - - - -
18/04:30pm 21.6 NE 22 27 1025.0 - 0.0 - - - - - - -
18/04:00pm 22.1 NE 21 26 1025.2 - 0.0 - - - - - - -
18/03:30pm 23.2 NE 21 25 1025.4 - 0.0 - - - - - - -
18/03:00pm 23.6 NE 20 23 1025.6 - 0.0 - - - - - - -
18/02:30pm 23.8 NE 21 26 1025.8 - 0.0 - - - - - - -
18/02:00pm 23.9 NE 20 24 1026.2 - 0.0 - - - - - - -
18/01:30pm 24.2 NE 18 22 1026.5 - 0.0 - - - - - - -
18/01:00pm 23.7 NE 19 23 1026.9 - 0.0 - - - - - - -
18/12:30pm 24.0 NE 18 21 1027.3 - 0.0 - - - - - - -
18/12:00pm 23.8 NE 17 20 1027.6 - 0.0 - - - - - - -
18/11:30am 23.3 NE 15 18 1028.1 - 0.0 - - - - - - -
18/11:00am 21.5 NE 15 18 1028.5 - 0.0 - - - - - - -
18/10:30am 22.5 NNE 14 16 1028.7 - 0.0 - - - - - - -
18/10:00am 23.1 NE 14 16 1028.7 - 0.0 - - - - - - -
18/09:30am 22.9 NNE 8 9 1028.8 - 0.0 - - - - - - -
18/09:00am 21.8 NE 7 9 1028.6 - 0.0 - - - - - - -
18/08:30am 21.0 NNE 6 7 1028.5 - 0.0 - - - - - - -
18/08:00am 20.4 NNE 8 9 1028.2 - 0.0 - - - - - - -
18/07:30am 19.6 NNE 8 10 1027.9 - 0.0 - - - - - - -
18/07:00am 18.2 NNE 12 15 1027.6 - 0.0 - - - - - - -
18/06:30am 18.9 NNE 16 23 1027.1 - 0.0 - - - - - - -
18/06:00am 18.6 NE 14 17 1026.9 - 0.0 - - - - - - -
18/05:30am 18.6 NE 14 17 1026.6 - 0.0 - - - - - - -
18/05:00am 18.4 NE 14 17 1026.4 - 0.0 - - - - - - -
18/04:30am 18.4 NE 14 17 1026.3 - 0.0 - - - - - - -
18/04:00am 18.6 NE 12 15 1026.3 - 0.0 - - - - - - -
18/03:30am 18.8 NE 12 15 1026.6 - 0.0 - - - - - - -
18/03:00am 19.0 NNE 10 11 1026.9 - 0.0 - - - - - - -
18/02:30am 18.9 NE 12 14 1027.2 - 0.0 - - - - - - -
18/02:00am 18.9 NNE 12 13 1027.6 - 0.0 - - - - - - -
18/01:30am 18.9 NE 11 13 1027.9 - 0.0 - - - - - - -
18/01:00am 18.6 NE 11 13 1028.1 - 0.0 - - - - - - -
18/12:30am 18.8 NE 11 13 1028.3 - 0.0 - - - - - - -
18/12:00am 18.9 NE 11 13 1028.4 - 0.0 - - - - - - -
 
Date/Time
EDT
Temp
°C
Wind Pressure Rain since
9am
mm
Weather Cloud Vis
km
Sea
Height
m
Swell
Dir  Spd
kts
Gust
kts
hPa Trend Height
m
Period
s
Dir
17/11:30pm 19.0 NNE 13 17 1028.4 - 0.0 - - - - - - -
17/11:00pm 19.0 NE 13 15 1028.3 - 0.0 - - - - - - -
17/10:30pm 19.1 NE 16 19 1028.2 - 0.0 - - - - - - -
17/10:00pm 18.8 NE 15 19 1027.9 - 0.0 - - - - - - -
17/09:30pm 18.8 NE 17 20 1027.6 - 0.0 - - - - - - -
17/09:00pm 18.9 NE 16 18 1027.5 - 0.0 - - - - - - -
17/08:30pm 18.8 NE 16 19 1027.2 - 0.0 - - - - - - -
17/08:00pm 18.8 NE 18 21 1026.9 - 0.0 - - - - - - -
17/07:30pm 18.9 NE 19 22 1026.6 - 0.0 - - - - - - -
17/07:00pm 19.1 ENE 18 23 1026.4 - 0.0 - - - - - - -
17/06:30pm 19.8 ENE 18 21 1026.0 - 0.0 - - - - - - -
17/06:00pm 20.4 ENE 16 19 1025.9 - 0.0 - - - - - - -
17/05:30pm 21.1 ENE 16 19 1026.1 - 0.0 - - - - - - -
17/05:00pm 21.6 ENE 17 22 1026.3 - 0.0 - - - - - - -
17/04:30pm 21.7 ENE 17 21 1026.2 - 0.0 - - - - - - -
17/04:00pm 21.9 ENE 17 20 1026.2 - 0.0 - - - - - - -
17/03:30pm 21.9 ENE 15 18 1026.3 - 0.0 - - - - - - -
17/03:00pm 22.2 ENE 16 18 1026.5 - 0.0 - - - - - - -
17/02:30pm 23.2 ENE 15 18 1026.7 - 0.0 - - - - - - -
17/02:00pm 23.7 ENE 15 18 1026.8 - 0.0 - - - - - - -
17/01:30pm 22.3 E 13 15 1026.8 - 0.0 - - - - - - -
17/01:00pm 22.6 ENE 13 15 1027.0 - 0.0 - - - - - - -
17/12:30pm 23.6 ENE 11 13 1027.2 - 0.0 - - - - - - -
17/12:00pm 25.1 ENE 10 12 1027.6 - 0.0 - - - - - - -
17/11:30am 22.9 E 7 9 1027.9 - 0.0 - - - - - - -
17/11:00am 22.9 E 8 9 1028.2 - 0.0 - - - - - - -
17/10:30am 23.0 ENE 9 11 1028.4 - 0.0 - - - - - - -
17/10:00am 22.7 ENE 8 10 1028.3 - 0.0 - - - - - - -
17/09:30am 23.4 ENE 10 12 1028.3 - 0.0 - - - - - - -
17/09:00am 20.8 NE 12 15 1028.1 - 0.0 - - - - - - -
17/08:30am 21.5 ENE 11 13 1027.9 - 0.0 - - - - - - -
17/08:00am 20.3 NE 9 11 1027.8 - 0.0 - - - - - - -
17/07:30am 19.8 NE 10 12 1027.6 - 0.0 - - - - - - -
17/07:00am 18.6 NE 11 12 1027.4 - 0.0 - - - - - - -
17/06:30am 18.1 NE 9 11 1027.0 - 0.0 - - - - - - -
17/06:00am 17.5 NE 11 12 1026.6 - 0.0 - - - - - - -
17/05:30am 17.8 NE 10 11 1026.6 - 0.0 - - - - - - -
17/05:00am 17.7 NE 10 12 1026.3 - 0.0 - - - - - - -
17/04:30am 17.8 ENE 9 11 1026.4 - 0.0 - - - - - - -
17/04:00am 18.3 NE 9 11 1026.4 - 0.0 - - - - - - -
17/03:30am 18.1 NE 9 11 1026.5 - 0.0 - - - - - - -
17/03:00am 17.9 NE 7 9 1026.6 - 0.0 - - - - - - -
17/02:30am 18.1 NNE 9 10 1026.7 - 0.0 - - - - - - -
17/02:00am 18.3 NE 10 12 1027.0 - 0.0 - - - - - - -
17/01:30am 18.0 NE 10 13 1027.4 - 0.0 - - - - - - -
17/01:00am 18.6 NE 12 14 1027.6 - 0.0 - - - - - - -
17/12:30am 18.3 NE 8 10 1027.7 - 0.0 - - - - - - -
17/12:00am 18.0 NE 10 12 1027.7 - 0.0 - - - - - - -
 
Date/Time
EDT
Temp
°C
Wind Pressure Rain since
9am
mm
Weather Cloud Vis
km
Sea
Height
m
Swell
Dir  Spd
kts
Gust
kts
hPa Trend Height
m
Period
s
Dir
16/11:30pm 18.0 NE 11 13 1027.7 - 0.0 - - - - - - -
16/11:00pm 18.0 ENE 9 12 1027.6 - 0.0 - - - - - - -
16/10:30pm 18.0 ENE 11 13 1027.5 - 0.0 - - - - - - -
16/10:00pm 18.1 NE 11 14 1027.8 - 0.0 - - - - - - -
16/09:30pm 18.7 NE 13 16 1027.7 - 0.0 - - - - - - -
16/09:00pm 18.8 NE 11 13 1027.6 - 0.0 - - - - - - -
16/08:30pm 18.8 NE 12 13 1027.4 - 0.0 - - - - - - -
16/08:00pm 18.5 NE 11 13 1027.2 - 0.0 - - - - - - -
16/07:30pm 18.5 NE 13 14 1027.1 - 0.0 - - - - - - -
16/07:00pm 18.6 ENE 12 14 1026.6 - 0.0 - - - - - - -
16/06:30pm 19.2 ENE 12 14 1026.3 - 0.0 - - - - - - -
16/06:00pm 19.5 NE 12 14 1026.4 - 0.0 - - - - - - -
16/05:30pm 20.5 ENE 8 9 1026.4 - 0.0 - - - - - - -
16/05:00pm 20.3 E 11 12 1026.2 - 0.0 - - - - - - -
16/04:30pm 20.6 E 10 13 1025.9 - 0.0 - - - - - - -
16/04:00pm 21.2 E 9 11 1026.1 - 0.0 - - - - - - -
16/03:30pm 22.9 ENE 9 12 1026.4 - 0.0 - - - - - - -
16/03:00pm 24.1 ENE 10 11 1026.5 - 0.0 - - - - - - -
16/02:30pm 24.0 NE 8 10 1026.7 - 0.0 - - - - - - -
16/02:00pm 21.2 NE 10 11 1027.2 - 0.0 - - - - - - -
16/01:30pm 24.2 NE 7 8 1027.4 - 0.0 - - - - - - -
16/01:00pm 23.1 NNE 9 10 1027.5 - 0.0 - - - - - - -
16/12:30pm 21.5 NNE 11 13 1027.6 - 0.0 - - - - - - -
16/12:00pm 22.6 NNE 11 13 1028.0 - 0.0 - - - - - - -
16/11:30am 23.4 NNE 9 12 1028.4 - 0.0 - - - - - - -
16/11:00am 21.9 NNE 8 10 1028.4 - 0.0 - - - - - - -
16/10:30am 23.0 NNE 4 5 1028.4 - 0.0 - - - - - - -
16/10:00am 21.5 NNE 3 3 1028.2 - 0.0 - - - - - - -
16/09:30am 21.6 NE 3 4 1028.1 - 0.0 - - - - - - -
16/09:00am 20.0 ESE 1 3 1027.8 - 0.4 - - - - - - -
16/08:30am 20.1 SSW 3 4 1027.3 - 0.4 - - - - - - -
16/08:00am 19.2 SSW 3 4 1027.0 - 0.4 - - - - - - -
16/07:30am 18.3 SW 3 4 1026.5 - 0.4 - - - - - - -
16/07:00am 17.4 SW 5 6 1026.1 - 0.4 - - - - - - -
16/06:30am 17.2 SW 4 5 1025.6 - 0.4 - - - - - - -
16/06:00am 16.5 WSW 5 6 1025.2 - 0.4 - - - - - - -
16/05:30am 17.0 SW 4 5 1025.0 - 0.4 - - - - - - -
16/05:00am 16.9 SW 4 6 1025.0 - 0.4 - - - - - - -
16/04:30am 17.1 SW 3 5 1025.0 - 0.4 - - - - - - -
16/04:00am 16.6 SW 3 5 1024.9 - 0.4 - - - - - - -
16/03:30am 17.0 SW 3 3 1025.1 - 0.4 - - - - - - -
16/03:00am 17.1 SW 3 5 1025.2 - 0.4 - - - - - - -
16/02:30am 17.4 WSW 2 3 1025.3 - 0.4 - - - - - - -
16/02:00am 17.1 WNW 1 2 1025.5 - 0.4 - - - - - - -
16/01:30am 16.6 NW 3 3 1025.7 - 0.4 - - - - - - -
16/01:00am 17.1 NNW 3 4 1025.9 - 0.4 - - - - - - -
16/12:30am 17.6 NW 3 3 1026.1 - 0.4 - - - - - - -
16/12:00am 18.0 N 5 6 1026.2 - 0.4 - - - - - - -
 
Date/Time
EDT
Temp
°C
Wind Pressure Rain since
9am
mm
Weather Cloud Vis
km
Sea
Height
m
Swell
Dir  Spd
kts
Gust
kts
hPa Trend Height
m
Period
s
Dir
15/11:30pm 17.9 N 5 6 1026.0 - 0.4 - - - - - - -
15/11:00pm 17.9 N 4 5 1026.1 - 0.4 - - - - - - -
15/10:30pm 17.9 NNW 3 4 1026.0 - 0.4 - - - - - - -
15/10:00pm 18.2 NNW 2 3 1026.1 - 0.4 - - - - - - -
15/09:30pm 18.2 NNE 5 6 1025.9 - 0.4 - - - - - - -
15/09:00pm 17.8 NE 4 4 1025.7 - 0.4 - - - - - - -
15/08:30pm 18.1 NE 5 6 1025.4 - 0.4 - - - - - - -
15/08:00pm 18.6 ENE 5 6 1025.2 - 0.4 - - - - - - -
15/07:30pm 19.0 ESE 6 7 1024.9 - 0.4 - - - - - - -
15/07:00pm 19.0 ESE 7 8 1024.5 - 0.4 - - - - - - -
15/06:30pm 19.3 E 7 9 1024.3 - 0.4 - - - - - - -

Other Formats:

Comma delimited format used in spreadsheet applications
http://www.bom.gov.au/fwo/IDN60701/IDN60701.95770.axf

JavaScript Object Notation format (JSON) in row-major order
http://www.bom.gov.au/fwo/IDN60701/IDN60701.95770.json